Ocean Tomo — 3FID9 — position and weather

sailwx.info

Track history (hours):
 
Tides and Currents Weather Stations Pressure Air Temp Water Temp Dewpoint Dewpoint Depression Visibility Wind Speed Wind Dir Waves Ship Positions

Ocean Tomo

Last reported at 2017-Jul-23 18:53 UTC. Time now 2017-Aug-24 10:38 UTC.
Position N 33°21' E 128°06'.
Warning: this ship's position is 31 days out of date.

Length 190 m; draft 7 m.

Type: Ship. MMSI: 372951000.

Date/timePositionNaut miles runAvg speedWind from/ knotsBaromVisibWave heightAir tempDewpointWater temp
2017-Jul-23 18:53N 33°21' E 128°06'514.6
2017-Jul-23 18:31N 33°18' E 128°00'815.1
2017-Jul-23 18:00N 33°14' E 127°53'715.2
2017-Jul-23 17:31N 33°10' E 127°45'815.0
2017-Jul-23 17:00N 33°07' E 127°37'814.9
2017-Jul-23 16:29N 33°03' E 127°29'715.0
2017-Jul-23 16:01N 32°59' E 127°22'714.7
2017-Jul-23 15:30N 32°55' E 127°14'714.6
2017-Jul-23 15:00N 32°51' E 127°07'4613.9
2017-Jul-23 11:42N 32°27' E 126°20'413.7
2017-Jul-23 11:25N 32°26' E 126°16'613.8
2017-Jul-23 10:57N 32°23' E 126°09'613.5
2017-Jul-23 10:30N 32°19' E 126°03'713.6
2017-Jul-23 09:59N 32°16' E 125°56'714.0
2017-Jul-23 09:30N 32°12' E 125°49'1914.0
2017-Jul-23 08:07N 32°02' E 125°30'214.2
2017-Jul-23 08:00N 32°01' E 125°28'814.4
2017-Jul-23 07:29N 31°57' E 125°21'7115.0
2017-Jul-23 02:47N 31°22' E 124°09'515.1
2017-Jul-23 02:26N 31°19' E 124°04'715.0
2017-Jul-23 02:00N 31°15' E 123°58'715.1
2017-Jul-23 01:30N 31°12' E 123°50'814.8
2017-Jul-23 00:59N 31°08' E 123°42'714.5
2017-Jul-23 00:30N 31°08' E 123°34'714.1
2017-Jul-23 00:00N 31°07' E 123°26'713.6
2017-Jul-22 23:30N 31°07' E 123°18'714.3
2017-Jul-22 23:01N 31°07' E 123°09'714.0
2017-Jul-22 22:30N 31°06' E 123°01'714.0
2017-Jul-22 22:01N 31°05' E 122°53'714.3
2017-Jul-22 21:31N 31°05' E 122°45'815.7
2017-Jul-22 21:00N 31°05' E 122°36'714.6
2017-Jul-22 20:30N 31°06' E 122°27'612.6
2017-Jul-22 20:00N 31°06' E 122°20'714.8
2017-Jul-22 19:31N 31°10' E 122°12'714.8
2017-Jul-22 19:00N 31°14' E 122°05'715.0
2017-Jul-22 18:30N 31°15' E 121°57'815.3
2017-Jul-22 18:00N 31°17' E 121°48'713.4
2017-Jul-22 17:31N 31°20' E 121°41'611.3
2017-Jul-22 17:00N 31°23' E 121°35'5 9.1
2017-Jul-22 16:31N 31°25' E 121°31'3 6.4
2017-Jul-22 16:00N 31°27' E 121°28'4 8.3
2017-Jul-22 15:30N 31°30' E 121°24'5 9.5
2017-Jul-22 15:01N 31°33' E 121°20'1111.2
2017-Jul-22 14:01N 31°41' E 121°11'713.5
2017-Jul-22 13:30N 31°45' E 121°04'612.7
2017-Jul-22 13:00N 31°47' E 120°57'713.4
2017-Jul-22 12:30N 31°53' E 120°53'1611.5
2017-Jul-22 11:04N 31°60' E 120°36'112.7
2017-Jul-22 11:00N 32°00' E 120°35'713.9
2017-Jul-22 10:30N 32°02' E 120°27'714.2
2017-Jul-22 10:00N 31°58' E 120°20'713.8
2017-Jul-22 09:30N 31°56' E 120°12'611.4
2017-Jul-22 09:00N 31°57' E 120°06'713.8
2017-Jul-22 08:30N 32°00' E 119°58'713.9
2017-Jul-22 07:59N 32°06' E 119°54'  
2017-Jul-20 02:08N 32°09' E 119°55'1 9.5
2017-Jul-20 02:00N 32°07' E 119°55'510.0
2017-Jul-20 01:30N 32°03' E 119°57'5 9.3
2017-Jul-20 00:59N 31°59' E 120°00'4 8.6
2017-Jul-20 00:29N 31°57' E 120°05'5 9.3
2017-Jul-19 23:58N 31°56' E 120°10'4 6.9
2017-Jul-19 23:21N 31°57' E 120°15'3 9.7
2017-Jul-19 23:00N 31°58' E 120°19'5 9.7
2017-Jul-19 22:30N 32°01' E 120°24'5 8.7
2017-Jul-19 21:55N 32°02' E 120°29'510.3
2017-Jul-19 21:28N 32°00' E 120°35'4 9.7
2017-Jul-19 21:00N 31°60' E 120°40'13 7.8
2017-Jul-19 19:22N 31°54' E 120°53'610.4
2017-Jul-19 18:49N 31°49' E 120°55'3 9.0
2017-Jul-19 18:28N 31°47' E 120°58'4 8.8
2017-Jul-19 18:01N 31°46' E 121°03'611.1
2017-Jul-19 17:30N 31°43' E 121°08'611.3
2017-Jul-19 17:00N 31°39' E 121°13'611.8
2017-Jul-19 16:30N 31°35' E 121°18'612.5
2017-Jul-19 16:01N 31°31' E 121°24'611.7
2017-Jul-19 15:30N 31°27' E 121°29'3 6.6
2017-Jul-19 15:01N 31°25' E 121°32'4 7.4
2017-Jul-19 14:30N 31°23' E 121°36'5 9.5
2017-Jul-19 14:00N 31°21' E 121°40'5 9.3
2017-Jul-19 13:30N 31°19' E 121°45'5 9.7
2017-Jul-19 13:00N 31°17' E 121°50'510.7
2017-Jul-19 12:30N 31°15' E 121°56'611.5
2017-Jul-19 12:01N 31°14' E 122°03'611.5
2017-Jul-19 11:31N 31°12' E 122°09'612.5
2017-Jul-19 11:00N 31°08' E 122°15'612.5
2017-Jul-19 10:30N 31°07' E 122°22'510.6
2017-Jul-19 10:00N 31°07' E 122°28'3 6.8
2017-Jul-19 09:30N 31°07' E 122°32'4 7.1
2017-Jul-19 08:59N 31°07' E 122°37'5 7.7
2017-Jul-19 08:19N 31°10' E 122°41'2 1.8
2017-Jul-19 07:07N 31°12' E 122°42'0 0.1
2017-Jul-19 06:22N 31°12' E 122°42'0 0.1
2017-Jul-19 05:55N 31°12' E 122°42'0 0.1
2017-Jul-19 05:25N 31°12' E 122°42'0 0.0
2017-Jul-19 04:58N 31°12' E 122°42'0 0.0
2017-Jul-19 04:28N 31°12' E 122°42'0 0.0
2017-Jul-19 03:52N 31°12' E 122°42'0 0.1
2017-Jul-19 03:28N 31°12' E 122°42'0 0.1
2017-Jul-19 02:58N 31°12' E 122°42'0 0.1
2017-Jul-19 02:28N 31°12' E 122°42'0 0.0
2017-Jul-19 01:58N 31°12' E 122°42'0 0.1
2017-Jul-19 01:28N 31°12' E 122°42'0 0.0
2017-Jul-19 00:58N 31°12' E 122°42'0 0.0
2017-Jul-19 00:28N 31°12' E 122°42'0 0.1
2017-Jul-18 23:49N 31°12' E 122°42'0 0.2
2017-Jul-18 23:28N 31°12' E 122°42'0 0.1
2017-Jul-18 22:58N 31°12' E 122°42'0 0.0
2017-Jul-18 22:28N 31°12' E 122°42'0 0.0
2017-Jul-18 21:58N 31°12' E 122°42'0 0.1
2017-Jul-18 21:28N 31°12' E 122°42'0 0.0
2017-Jul-18 20:49N 31°12' E 122°42'0 0.1
2017-Jul-18 20:25N 31°12' E 122°41'0 0.0
2017-Jul-18 19:55N 31°12' E 122°41'0 0.1
2017-Jul-18 19:28N 31°12' E 122°42'0 0.0
2017-Jul-18 18:58N 31°12' E 122°42'0 0.0
2017-Jul-18 18:04N 31°12' E 122°42'0 0.2
2017-Jul-18 17:46N 31°12' E 122°42'0 0.0
2017-Jul-18 17:28N 31°12' E 122°42'0 0.0
2017-Jul-18 16:52N 31°12' E 122°42'0 0.1
2017-Jul-18 16:25N 31°12' E 122°42'0 0.0
2017-Jul-18 15:58N 31°12' E 122°42'0 0.0
2017-Jul-18 15:28N 31°12' E 122°42'0 0.1
2017-Jul-18 14:55N 31°12' E 122°42'0 0.0
2017-Jul-18 13:58N 31°12' E 122°42'0 0.0
2017-Jul-18 13:28N 31°12' E 122°42'0 0.3
2017-Jul-18 13:00N 31°13' E 122°42'3 5.3
2017-Jul-18 12:30N 31°15' E 122°43'611.1
2017-Jul-18 12:00N 31°16' E 122°50'3 6.1
2017-Jul-18 11:30N 31°17' E 122°53'3111.6
2017-Jul-18 08:51N 31°43' E 123°13'512.2
2017-Jul-18 08:29N 31°47' E 123°16'612.2
2017-Jul-18 07:58N 31°53' E 123°18'612.5
2017-Jul-18 07:30N 31°59' E 123°18'613.0
2017-Jul-18 07:00N 32°05' E 123°18'713.4
2017-Jul-18 06:30N 32°12' E 123°18'713.6
2017-Jul-18 06:00N 32°19' E 123°18'13911.4
2017-Jul-17 17:45N 34°28' E 122°16'312.7
2017-Jul-17 17:29N 34°29' E 122°12'  
2017-Jul-13 23:42N 33°51' E 123°35'311.5
2017-Jul-13 23:29N 33°49' E 123°35'711.6
2017-Jul-13 22:54N 33°42' E 123°34'511.8
2017-Jul-13 22:30N 33°37' E 123°34'612.1
2017-Jul-13 21:59N 33°31' E 123°33'612.4
2017-Jul-13 21:29N 33°25' E 123°33'1011.2
2017-Jul-13 20:34N 33°15' E 123°36'611.2
2017-Jul-13 20:05N 33°11' E 123°40'212.2
2017-Jul-13 19:56N 33°09' E 123°41'612.7
2017-Jul-13 19:30N 33°04' E 123°43'613.0
2017-Jul-13 19:00N 32°58' E 123°40'  
Track history (hours):
 
Tides and Currents Weather Stations Pressure Air Temp Water Temp Dewpoint Dewpoint Depression Visibility Wind Speed Wind Dir Waves Ship Positions

Ocean Tomo

Last reported at 2017-Jul-23 18:53 UTC. Time now 2017-Aug-24 10:38 UTC.
Position N 33°21' E 128°06'.
Warning: this ship's position is 31 days out of date.

Length 190 m; draft 7 m.

Type: Ship. MMSI: 372951000.

Date/timePositionNaut miles runAvg speedWind from/ knotsBaromVisibWave heightAir tempDewpointWater temp
2017-Jul-23 18:53N 33°21' E 128°06'514.6
2017-Jul-23 18:31N 33°18' E 128°00'815.1
2017-Jul-23 18:00N 33°14' E 127°53'715.2
2017-Jul-23 17:31N 33°10' E 127°45'815.0
2017-Jul-23 17:00N 33°07' E 127°37'814.9
2017-Jul-23 16:29N 33°03' E 127°29'715.0
2017-Jul-23 16:01N 32°59' E 127°22'714.7
2017-Jul-23 15:30N 32°55' E 127°14'714.6
2017-Jul-23 15:00N 32°51' E 127°07'4613.9
2017-Jul-23 11:42N 32°27' E 126°20'413.7
2017-Jul-23 11:25N 32°26' E 126°16'613.8
2017-Jul-23 10:57N 32°23' E 126°09'613.5
2017-Jul-23 10:30N 32°19' E 126°03'713.6
2017-Jul-23 09:59N 32°16' E 125°56'714.0
2017-Jul-23 09:30N 32°12' E 125°49'1914.0
2017-Jul-23 08:07N 32°02' E 125°30'214.2
2017-Jul-23 08:00N 32°01' E 125°28'814.4
2017-Jul-23 07:29N 31°57' E 125°21'7115.0
2017-Jul-23 02:47N 31°22' E 124°09'515.1
2017-Jul-23 02:26N 31°19' E 124°04'715.0
2017-Jul-23 02:00N 31°15' E 123°58'715.1
2017-Jul-23 01:30N 31°12' E 123°50'814.8
2017-Jul-23 00:59N 31°08' E 123°42'714.5
2017-Jul-23 00:30N 31°08' E 123°34'714.1
2017-Jul-23 00:00N 31°07' E 123°26'713.6
2017-Jul-22 23:30N 31°07' E 123°18'714.3
2017-Jul-22 23:01N 31°07' E 123°09'714.0
2017-Jul-22 22:30N 31°06' E 123°01'714.0
2017-Jul-22 22:01N 31°05' E 122°53'714.3
2017-Jul-22 21:31N 31°05' E 122°45'815.7
2017-Jul-22 21:00N 31°05' E 122°36'714.6
2017-Jul-22 20:30N 31°06' E 122°27'612.6
2017-Jul-22 20:00N 31°06' E 122°20'714.8
2017-Jul-22 19:31N 31°10' E 122°12'714.8
2017-Jul-22 19:00N 31°14' E 122°05'715.0
2017-Jul-22 18:30N 31°15' E 121°57'815.3
2017-Jul-22 18:00N 31°17' E 121°48'713.4
2017-Jul-22 17:31N 31°20' E 121°41'611.3
2017-Jul-22 17:00N 31°23' E 121°35'5 9.1
2017-Jul-22 16:31N 31°25' E 121°31'3 6.4
2017-Jul-22 16:00N 31°27' E 121°28'4 8.3
2017-Jul-22 15:30N 31°30' E 121°24'5 9.5
2017-Jul-22 15:01N 31°33' E 121°20'1111.2
2017-Jul-22 14:01N 31°41' E 121°11'713.5
2017-Jul-22 13:30N 31°45' E 121°04'612.7
2017-Jul-22 13:00N 31°47' E 120°57'713.4
2017-Jul-22 12:30N 31°53' E 120°53'1611.5
2017-Jul-22 11:04N 31°60' E 120°36'112.7
2017-Jul-22 11:00N 32°00' E 120°35'713.9
2017-Jul-22 10:30N 32°02' E 120°27'714.2
2017-Jul-22 10:00N 31°58' E 120°20'713.8
2017-Jul-22 09:30N 31°56' E 120°12'611.4
2017-Jul-22 09:00N 31°57' E 120°06'713.8
2017-Jul-22 08:30N 32°00' E 119°58'713.9
2017-Jul-22 07:59N 32°06' E 119°54'  
2017-Jul-20 02:08N 32°09' E 119°55'1 9.5
2017-Jul-20 02:00N 32°07' E 119°55'510.0
2017-Jul-20 01:30N 32°03' E 119°57'5 9.3
2017-Jul-20 00:59N 31°59' E 120°00'4 8.6
2017-Jul-20 00:29N 31°57' E 120°05'5 9.3
2017-Jul-19 23:58N 31°56' E 120°10'4 6.9
2017-Jul-19 23:21N 31°57' E 120°15'3 9.7
2017-Jul-19 23:00N 31°58' E 120°19'5 9.7
2017-Jul-19 22:30N 32°01' E 120°24'5 8.7
2017-Jul-19 21:55N 32°02' E 120°29'510.3
2017-Jul-19 21:28N 32°00' E 120°35'4 9.7
2017-Jul-19 21:00N 31°60' E 120°40'13 7.8
2017-Jul-19 19:22N 31°54' E 120°53'610.4
2017-Jul-19 18:49N 31°49' E 120°55'3 9.0
2017-Jul-19 18:28N 31°47' E 120°58'4 8.8
2017-Jul-19 18:01N 31°46' E 121°03'611.1
2017-Jul-19 17:30N 31°43' E 121°08'611.3
2017-Jul-19 17:00N 31°39' E 121°13'611.8
2017-Jul-19 16:30N 31°35' E 121°18'612.5
2017-Jul-19 16:01N 31°31' E 121°24'611.7
2017-Jul-19 15:30N 31°27' E 121°29'3 6.6
2017-Jul-19 15:01N 31°25' E 121°32'4 7.4
2017-Jul-19 14:30N 31°23' E 121°36'5 9.5
2017-Jul-19 14:00N 31°21' E 121°40'5 9.3
2017-Jul-19 13:30N 31°19' E 121°45'5 9.7
2017-Jul-19 13:00N 31°17' E 121°50'510.7
2017-Jul-19 12:30N 31°15' E 121°56'611.5
2017-Jul-19 12:01N 31°14' E 122°03'611.5
2017-Jul-19 11:31N 31°12' E 122°09'612.5
2017-Jul-19 11:00N 31°08' E 122°15'612.5
2017-Jul-19 10:30N 31°07' E 122°22'510.6
2017-Jul-19 10:00N 31°07' E 122°28'3 6.8
2017-Jul-19 09:30N 31°07' E 122°32'4 7.1
2017-Jul-19 08:59N 31°07' E 122°37'5 7.7
2017-Jul-19 08:19N 31°10' E 122°41'2 1.8
2017-Jul-19 07:07N 31°12' E 122°42'0 0.1
2017-Jul-19 06:22N 31°12' E 122°42'0 0.1
2017-Jul-19 05:55N 31°12' E 122°42'0 0.1
2017-Jul-19 05:25N 31°12' E 122°42'0 0.0
2017-Jul-19 04:58N 31°12' E 122°42'0 0.0
2017-Jul-19 04:28N 31°12' E 122°42'0 0.0
2017-Jul-19 03:52N 31°12' E 122°42'0 0.1
2017-Jul-19 03:28N 31°12' E 122°42'0 0.1
2017-Jul-19 02:58N 31°12' E 122°42'0 0.1
2017-Jul-19 02:28N 31°12' E 122°42'0 0.0
2017-Jul-19 01:58N 31°12' E 122°42'0 0.1
2017-Jul-19 01:28N 31°12' E 122°42'0 0.0
2017-Jul-19 00:58N 31°12' E 122°42'0 0.0
2017-Jul-19 00:28N 31°12' E 122°42'0 0.1
2017-Jul-18 23:49N 31°12' E 122°42'0 0.2
2017-Jul-18 23:28N 31°12' E 122°42'0 0.1
2017-Jul-18 22:58N 31°12' E 122°42'0 0.0
2017-Jul-18 22:28N 31°12' E 122°42'0 0.0
2017-Jul-18 21:58N 31°12' E 122°42'0 0.1
2017-Jul-18 21:28N 31°12' E 122°42'0 0.0
2017-Jul-18 20:49N 31°12' E 122°42'0 0.1
2017-Jul-18 20:25N 31°12' E 122°41'0 0.0
2017-Jul-18 19:55N 31°12' E 122°41'0 0.1
2017-Jul-18 19:28N 31°12' E 122°42'0 0.0
2017-Jul-18 18:58N 31°12' E 122°42'0 0.0
2017-Jul-18 18:04N 31°12' E 122°42'0 0.2
2017-Jul-18 17:46N 31°12' E 122°42'0 0.0
2017-Jul-18 17:28N 31°12' E 122°42'0 0.0
2017-Jul-18 16:52N 31°12' E 122°42'0 0.1
2017-Jul-18 16:25N 31°12' E 122°42'0 0.0
2017-Jul-18 15:58N 31°12' E 122°42'0 0.0
2017-Jul-18 15:28N 31°12' E 122°42'0 0.1
2017-Jul-18 14:55N 31°12' E 122°42'0 0.0
2017-Jul-18 13:58N 31°12' E 122°42'0 0.0
2017-Jul-18 13:28N 31°12' E 122°42'0 0.3
2017-Jul-18 13:00N 31°13' E 122°42'3 5.3
2017-Jul-18 12:30N 31°15' E 122°43'611.1
2017-Jul-18 12:00N 31°16' E 122°50'3 6.1
2017-Jul-18 11:30N 31°17' E 122°53'3111.6
2017-Jul-18 08:51N 31°43' E 123°13'512.2
2017-Jul-18 08:29N 31°47' E 123°16'612.2
2017-Jul-18 07:58N 31°53' E 123°18'612.5
2017-Jul-18 07:30N 31°59' E 123°18'613.0
2017-Jul-18 07:00N 32°05' E 123°18'713.4
2017-Jul-18 06:30N 32°12' E 123°18'713.6
2017-Jul-18 06:00N 32°19' E 123°18'13911.4
2017-Jul-17 17:45N 34°28' E 122°16'312.7
2017-Jul-17 17:29N 34°29' E 122°12'  
2017-Jul-13 23:42N 33°51' E 123°35'311.5
2017-Jul-13 23:29N 33°49' E 123°35'711.6
2017-Jul-13 22:54N 33°42' E 123°34'511.8
2017-Jul-13 22:30N 33°37' E 123°34'612.1
2017-Jul-13 21:59N 33°31' E 123°33'612.4
2017-Jul-13 21:29N 33°25' E 123°33'1011.2
2017-Jul-13 20:34N 33°15' E 123°36'611.2
2017-Jul-13 20:05N 33°11' E 123°40'212.2
2017-Jul-13 19:56N 33°09' E 123°41'612.7
2017-Jul-13 19:30N 33°04' E 123°43'613.0
2017-Jul-13 19:00N 32°58' E 123°40'  

Dump ship's entire track history